Time;durP1;ratioP1;P1;durP2;ratioP2;P2;SDS_P1;SDS_P2;PMS_P1;PMS_P2;Temp;Humidity;BMP_temperature;BMP_pressure;BME280_temperature;BME280_humidity;BME280_pressure;Samples;Min_cycle;Max_cycle;Signal;HPM_P1;HPM_P2
2023/09/06 00:01:39;;;;;;;9.45;5.22;;;23.40;99.90;;;;;;6183737;28;94576;-70
2023/09/06 00:04:42;;;;;;;10.85;5.50;;;23.40;99.90;;;;;;6196493;28;94035;-71
2023/09/06 00:07:45;;;;;;;9.95;5.13;;;23.40;99.90;;;;;;6197315;28;94355;-70
2023/09/06 00:10:47;;;;;;;11.77;6.18;;;23.40;99.90;;;;;;6180201;28;94038;-71
2023/09/06 00:13:49;;;;;;;11.48;5.57;;;23.40;99.90;;;;;;6181247;28;94146;-70
2023/09/06 00:16:51;;;;;;;8.02;4.88;;;23.40;99.90;;;;;;6194508;28;93881;-70
2023/09/06 00:19:53;;;;;;;8.40;5.63;;;23.40;99.90;;;;;;6189606;28;93454;-70
2023/09/06 00:22:58;;;;;;;8.25;5.55;;;23.40;99.90;;;;;;6196278;28;94093;-70
2023/09/06 00:26:00;;;;;;;7.93;5.22;;;23.40;99.90;;;;;;6194712;28;94252;-70
2023/09/06 00:29:05;;;;;;;7.60;4.95;;;23.30;99.90;;;;;;6197821;28;95174;-69
2023/09/06 00:32:07;;;;;;;7.93;5.35;;;23.40;99.90;;;;;;6197166;28;94093;-71
2023/09/06 00:35:09;;;;;;;7.97;5.30;;;23.30;99.90;;;;;;6191737;28;94118;-71
2023/09/06 00:38:13;;;;;;;6.82;5.20;;;23.30;99.90;;;;;;6191551;28;94283;-70
2023/09/06 00:41:14;;;;;;;8.55;5.20;;;23.30;99.90;;;;;;6184154;28;94114;-70
2023/09/06 00:44:17;;;;;;;6.22;5.10;;;23.30;99.90;;;;;;6185953;28;94121;-69
2023/09/06 00:47:19;;;;;;;7.95;5.13;;;23.30;99.90;;;;;;6199282;28;94188;-70
2023/09/06 00:50:22;;;;;;;7.22;5.00;;;23.30;99.90;;;;;;6191605;28;93360;-71
2023/09/06 00:53:26;;;;;;;7.10;5.32;;;23.30;99.90;;;;;;6193026;28;94057;-70
2023/09/06 00:56:29;;;;;;;7.47;5.25;;;23.30;99.90;;;;;;6188489;28;95625;-70
2023/09/06 00:59:34;;;;;;;5.82;4.88;;;23.30;99.90;;;;;;6181849;28;95100;-70
2023/09/06 01:02:38;;;;;;;6.60;4.85;;;23.30;99.90;;;;;;6196101;28;94249;-70
2023/09/06 01:05:48;;;;;;;6.97;5.18;;;23.40;99.90;;;;;;6182293;28;94305;-70
2023/09/06 01:08:57;;;;;;;6.18;4.90;;;23.30;99.90;;;;;;6180855;28;94176;-70
2023/09/06 01:12:00;;;;;;;5.70;4.75;;;23.30;99.90;;;;;;6187841;28;94111;-70
2023/09/06 01:15:03;;;;;;;7.05;5.25;;;23.30;99.90;;;;;;6195894;28;94118;-71
2023/09/06 01:18:06;;;;;;;5.65;4.65;;;23.30;99.90;;;;;;6191466;28;94301;-70
2023/09/06 01:21:14;;;;;;;7.10;5.28;;;23.30;99.90;;;;;;6205028;28;94023;-70
2023/09/06 01:24:19;;;;;;;5.72;5.10;;;23.30;99.90;;;;;;6196541;28;94127;-70
2023/09/06 01:27:21;;;;;;;6.63;4.97;;;23.30;99.90;;;;;;6188390;28;94182;-70
2023/09/06 01:30:28;;;;;;;5.90;5.13;;;23.30;99.90;;;;;;6195574;28;95062;-70
2023/09/06 01:33:31;;;;;;;6.97;5.22;;;23.30;99.90;;;;;;6183652;28;94230;-70
2023/09/06 01:36:33;;;;;;;5.60;5.05;;;23.30;99.90;;;;;;6185910;28;94164;-70
2023/09/06 01:39:36;;;;;;;6.40;5.00;;;23.30;99.90;;;;;;6188221;28;94899;-70
2023/09/06 01:42:38;;;;;;;7.35;5.07;;;23.30;99.90;;;;;;6187776;28;94423;-70
2023/09/06 01:45:45;;;;;;;6.43;5.03;;;23.30;99.90;;;;;;6194384;28;92934;-70
2023/09/06 01:48:47;;;;;;;7.03;5.28;;;23.30;99.90;;;;;;6202959;28;94098;-70
2023/09/06 01:51:49;;;;;;;5.30;4.80;;;23.30;99.90;;;;;;6192112;28;92828;-70
2023/09/06 01:54:53;;;;;;;5.75;4.82;;;23.30;99.90;;;;;;6193957;28;94089;-70
2023/09/06 01:57:55;;;;;;;6.60;5.10;;;23.30;99.90;;;;;;6185348;28;92972;-70
2023/09/06 02:00:58;;;;;;;6.05;5.00;;;23.30;99.90;;;;;;6182614;28;95033;-70
2023/09/06 02:04:02;;;;;;;5.88;4.85;;;23.30;99.90;;;;;;6204604;28;93010;-70
2023/09/06 02:07:04;;;;;;;6.45;4.68;;;23.30;99.90;;;;;;6191927;28;94301;-71
2023/09/06 02:10:09;;;;;;;5.85;4.63;;;23.30;99.90;;;;;;6189066;28;94119;-71
2023/09/06 02:13:11;;;;;;;6.43;4.45;;;23.30;99.90;;;;;;6191622;28;94128;-70
2023/09/06 02:16:13;;;;;;;5.70;5.05;;;23.30;99.90;;;;;;6191392;28;94097;-70
2023/09/06 02:19:15;;;;;;;5.07;4.57;;;23.30;99.90;;;;;;6188833;28;94085;-70
2023/09/06 02:22:18;;;;;;;5.40;4.80;;;23.30;99.90;;;;;;6191686;28;93347;-70
2023/09/06 02:25:24;;;;;;;6.03;4.63;;;23.30;99.90;;;;;;6191396;28;94083;-70
2023/09/06 02:28:26;;;;;;;6.57;4.90;;;23.30;99.90;;;;;;6202053;28;94077;-70
2023/09/06 02:31:28;;;;;;;5.03;4.45;;;23.30;99.90;;;;;;6181923;28;95011;-69
2023/09/06 02:34:30;;;;;;;5.75;5.00;;;23.30;99.90;;;;;;6199482;28;94003;-70
2023/09/06 02:37:32;;;;;;;6.28;4.80;;;23.30;99.90;;;;;;6186345;28;93062;-70
2023/09/06 02:40:36;;;;;;;5.43;4.47;;;23.30;99.90;;;;;;6195808;28;93964;-70
2023/09/06 02:43:38;;;;;;;4.82;4.43;;;23.30;99.90;;;;;;6189502;28;94300;-70
2023/09/06 02:46:40;;;;;;;6.13;4.85;;;23.30;99.90;;;;;;6189750;28;94668;-70
2023/09/06 02:49:43;;;;;;;5.18;4.57;;;23.20;99.90;;;;;;6191110;28;94095;-70
2023/09/06 02:52:46;;;;;;;5.30;4.72;;;23.30;99.90;;;;;;6185888;28;93509;-70
2023/09/06 02:55:51;;;;;;;5.22;4.72;;;23.20;99.90;;;;;;6185758;28;94406;-70
2023/09/06 02:58:53;;;;;;;5.20;4.30;;;23.30;99.90;;;;;;6191483;28;94071;-71
2023/09/06 03:01:56;;;;;;;5.53;4.65;;;23.20;99.90;;;;;;6187213;28;94984;-70
2023/09/06 03:05:03;;;;;;;4.93;4.43;;;23.30;99.90;;;;;;6179360;28;93879;-70
2023/09/06 03:08:06;;;;;;;5.00;4.50;;;23.30;99.90;;;;;;6204772;28;95549;-70
2023/09/06 03:11:14;;;;;;;4.88;4.38;;;23.20;99.90;;;;;;6190601;28;94317;-70
2023/09/06 03:14:17;;;;;;;4.68;4.22;;;23.30;99.90;;;;;;6183446;28;94387;-70
2023/09/06 03:17:22;;;;;;;4.95;4.50;;;23.30;99.90;;;;;;6199335;28;93791;-71
2023/09/06 03:20:32;;;;;;;5.22;4.72;;;23.20;99.90;;;;;;6197246;28;94481;-70
2023/09/06 03:23:34;;;;;;;5.78;4.82;;;23.20;99.90;;;;;;6190580;28;93701;-69
2023/09/06 03:26:37;;;;;;;4.70;4.30;;;23.20;99.90;;;;;;6190070;28;94191;-70
2023/09/06 03:29:39;;;;;;;4.97;4.47;;;23.20;99.90;;;;;;6203112;28;94380;-70
2023/09/06 03:32:42;;;;;;;5.32;4.50;;;23.20;99.90;;;;;;6183145;28;95359;-70
2023/09/06 03:35:45;;;;;;;4.82;4.30;;;23.30;99.90;;;;;;6180948;28;94303;-71
2023/09/06 03:38:47;;;;;;;4.97;4.50;;;23.20;99.90;;;;;;6191465;28;95545;-70
2023/09/06 03:41:50;;;;;;;5.32;4.40;;;23.20;99.90;;;;;;6188677;28;93078;-70
2023/09/06 03:44:53;;;;;;;4.97;4.20;;;23.20;99.90;;;;;;6185572;28;96590;-70
2023/09/06 03:47:55;;;;;;;4.45;4.05;;;23.20;99.90;;;;;;6192565;28;94088;-70
2023/09/06 03:50:59;;;;;;;4.80;4.30;;;23.20;99.90;;;;;;6179304;28;94121;-70
2023/09/06 03:54:05;;;;;;;4.82;4.35;;;23.20;99.90;;;;;;6199793;28;93375;-70
2023/09/06 03:57:12;;;;;;;4.60;4.20;;;23.30;99.90;;;;;;6190753;28;94164;-70
2023/09/06 04:00:24;;;;;;;4.65;4.25;;;23.20;99.90;;;;;;6190195;28;94408;-70
2023/09/06 04:03:27;;;;;;;4.82;4.38;;;23.20;99.90;;;;;;6201826;28;95059;-70
2023/09/06 04:06:29;;;;;;;5.13;4.38;;;23.20;99.90;;;;;;6201907;28;94346;-70
2023/09/06 04:09:37;;;;;;;4.90;4.40;;;23.20;99.90;;;;;;6202289;28;94270;-70
2023/09/06 04:12:40;;;;;;;5.72;4.90;;;23.20;99.90;;;;;;6187048;28;94153;-70
2023/09/06 04:15:43;;;;;;;5.05;4.65;;;23.20;99.90;;;;;;6191126;28;93971;-70
2023/09/06 04:18:45;;;;;;;5.10;4.60;;;23.20;99.90;;;;;;6189884;28;94061;-70
2023/09/06 04:21:47;;;;;;;4.80;4.40;;;23.20;99.90;;;;;;6178776;28;94134;-70
2023/09/06 04:24:50;;;;;;;5.38;4.80;;;23.20;99.90;;;;;;6192216;28;93383;-70
2023/09/06 04:27:54;;;;;;;5.47;4.90;;;23.20;99.90;;;;;;6187475;28;92966;-71
2023/09/06 04:30:57;;;;;;;5.75;4.90;;;23.20;99.90;;;;;;6178538;28;93869;-69
2023/09/06 04:34:00;;;;;;;4.63;4.20;;;23.20;99.90;;;;;;6190213;28;95095;-69
2023/09/06 04:37:02;;;;;;;5.65;5.05;;;23.20;99.90;;;;;;6194795;28;94227;-71
2023/09/06 04:40:08;;;;;;;7.43;5.82;;;23.20;99.90;;;;;;6183945;28;94146;-72
2023/09/06 04:43:12;;;;;;;6.90;6.20;;;23.30;99.90;;;;;;6188495;28;94150;-69
2023/09/06 04:46:15;;;;;;;6.75;6.13;;;23.40;99.90;;;;;;6192457;28;94119;-71
2023/09/06 04:49:23;;;;;;;7.30;6.25;;;23.40;99.90;;;;;;6177489;28;94127;-71
2023/09/06 04:52:27;;;;;;;6.75;6.15;;;23.40;99.90;;;;;;6194949;28;93172;-71
2023/09/06 04:55:33;;;;;;;6.68;6.07;;;23.50;99.90;;;;;;6186615;28;93361;-71
2023/09/06 04:58:37;;;;;;;8.80;6.07;;;23.40;99.90;;;;;;6176991;28;94325;-69
2023/09/06 05:01:40;;;;;;;10.57;6.13;;;23.50;99.90;;;;;;6190109;28;94032;-71
2023/09/06 05:04:43;;;;;;;6.40;5.75;;;23.50;99.90;;;;;;6180421;28;94196;-71
2023/09/06 05:07:45;;;;;;;6.30;5.30;;;23.40;99.90;;;;;;6190195;28;94216;-71
2023/09/06 05:10:51;;;;;;;6.45;5.85;;;23.50;99.90;;;;;;6192237;28;92958;-71
2023/09/06 05:13:54;;;;;;;6.57;5.70;;;23.40;99.90;;;;;;6181600;28;94053;-71
2023/09/06 05:16:56;;;;;;;5.40;4.90;;;23.40;99.90;;;;;;6183833;28;94150;-71
2023/09/06 05:20:26;;;;;;;6.70;5.80;;;23.40;99.90;;;;;;6193900;28;94431;-72
2023/09/06 05:23:29;;;;;;;5.53;5.03;;;23.40;99.90;;;;;;6180411;28;94125;-71
2023/09/06 05:26:33;;;;;;;6.43;5.72;;;23.40;99.90;;;;;;6182653;28;93075;-72
2023/09/06 05:29:36;;;;;;;6.07;5.30;;;23.40;99.90;;;;;;6182030;28;93977;-72
2023/09/06 05:32:38;;;;;;;5.93;5.30;;;23.40;99.90;;;;;;6181852;28;94123;-72
2023/09/06 05:35:41;;;;;;;5.75;5.10;;;23.40;99.90;;;;;;6191507;28;93964;-71
2023/09/06 05:38:43;;;;;;;7.88;5.80;;;23.40;99.90;;;;;;6191979;28;94529;-72
2023/09/06 05:41:45;;;;;;;6.45;5.50;;;23.40;99.90;;;;;;6203726;28;94412;-72
2023/09/06 05:44:48;;;;;;;6.63;5.85;;;23.40;99.90;;;;;;6203201;28;94132;-72
2023/09/06 05:47:50;;;;;;;6.40;5.70;;;23.40;99.90;;;;;;6181434;28;94109;-72
2023/09/06 05:50:52;;;;;;;8.00;6.03;;;23.40;99.90;;;;;;6192493;28;94051;-72
2023/09/06 05:53:54;;;;;;;5.90;5.35;;;23.40;99.90;;;;;;6189314;28;94061;-71
2023/09/06 05:56:56;;;;;;;6.75;5.28;;;23.40;99.90;;;;;;6196251;28;93339;-72
2023/09/06 06:00:00;;;;;;;6.60;5.80;;;23.40;99.90;;;;;;6200632;28;93992;-72
2023/09/06 06:03:02;;;;;;;6.03;5.22;;;23.40;99.90;;;;;;6199311;28;94249;-71
2023/09/06 06:06:06;;;;;;;7.72;5.65;;;23.40;99.90;;;;;;6179525;28;95084;-72
2023/09/06 06:09:11;;;;;;;6.65;5.90;;;23.40;99.90;;;;;;6183066;28;93985;-72
2023/09/06 06:12:13;;;;;;;6.10;5.50;;;23.40;99.90;;;;;;6191499;28;94230;-71
2023/09/06 06:15:17;;;;;;;5.72;5.20;;;23.40;99.90;;;;;;6204631;28;94860;-72
2023/09/06 06:18:19;;;;;;;5.88;5.28;;;23.40;99.90;;;;;;6193123;28;94059;-72
2023/09/06 06:21:20;;;;;;;5.72;5.22;;;23.40;99.90;;;;;;6190222;28;94115;-71
2023/09/06 06:24:22;;;;;;;6.25;5.40;;;23.40;99.90;;;;;;6203421;28;94824;-72
2023/09/06 06:27:25;;;;;;;6.28;5.68;;;23.40;99.90;;;;;;6182827;28;93323;-72
2023/09/06 06:30:28;;;;;;;6.50;5.90;;;23.40;99.90;;;;;;6183141;28;94504;-71
2023/09/06 06:33:30;;;;;;;6.35;5.75;;;23.40;99.90;;;;;;6199539;28;94173;-72
2023/09/06 06:36:32;;;;;;;5.75;5.25;;;23.40;99.90;;;;;;6200379;28;95260;-71
2023/09/06 06:39:34;;;;;;;6.03;5.43;;;23.40;99.90;;;;;;6190754;28;94510;-72
2023/09/06 06:42:39;;;;;;;6.07;5.47;;;23.40;99.90;;;;;;6186349;28;94129;-71
2023/09/06 06:45:55;;;;;;;6.00;5.50;;;23.50;99.90;;;;;;6188829;28;94184;-72
2023/09/06 06:48:58;;;;;;;6.40;5.82;;;23.50;99.90;;;;;;6197671;28;94146;-72
2023/09/06 06:52:00;;;;;;;5.82;5.32;;;23.50;99.90;;;;;;6179650;28;94060;-72
2023/09/06 06:55:03;;;;;;;7.78;5.95;;;23.50;99.90;;;;;;6191898;28;94304;-71
2023/09/06 06:58:07;;;;;;;6.20;5.32;;;23.50;99.90;;;;;;6203765;28;93678;-72
2023/09/06 07:01:10;;;;;;;6.03;5.53;;;23.50;99.90;;;;;;6195099;28;94102;-72
2023/09/06 07:04:12;;;;;;;6.50;5.80;;;23.50;99.90;;;;;;6192481;28;94122;-72
2023/09/06 07:07:14;;;;;;;5.93;5.38;;;23.50;99.90;;;;;;6191786;28;95154;-71
2023/09/06 07:10:17;;;;;;;6.00;5.50;;;23.50;99.90;;;;;;6191195;28;94034;-71
2023/09/06 07:13:19;;;;;;;6.13;5.55;;;23.50;99.90;;;;;;6179906;28;94077;-72
2023/09/06 07:16:23;;;;;;;6.43;5.82;;;23.50;99.90;;;;;;6188534;28;92989;-72
2023/09/06 07:19:24;;;;;;;6.07;5.57;;;23.50;99.90;;;;;;6203145;28;94232;-72
2023/09/06 07:22:27;;;;;;;6.20;5.68;;;23.50;99.90;;;;;;6187736;28;94077;-72
2023/09/06 07:25:29;;;;;;;6.15;5.65;;;23.50;99.90;;;;;;6189681;28;94122;-72
2023/09/06 07:28:38;;;;;;;6.40;5.72;;;23.50;99.90;;;;;;6189212;28;93447;-72
2023/09/06 07:31:41;;;;;;;6.38;5.78;;;23.50;99.90;;;;;;6192318;28;94129;-72
2023/09/06 07:34:43;;;;;;;6.15;5.55;;;23.50;99.90;;;;;;6190421;28;94096;-72
2023/09/06 07:37:45;;;;;;;6.68;6.05;;;23.40;99.90;;;;;;6177749;28;95076;-72
2023/09/06 07:40:47;;;;;;;6.18;5.57;;;23.50;99.90;;;;;;6190718;28;94369;-72
2023/09/06 07:43:50;;;;;;;6.10;5.60;;;23.50;99.90;;;;;;6187220;28;94250;-72
2023/09/06 07:46:53;;;;;;;5.78;5.28;;;23.50;99.90;;;;;;6201856;28;94190;-72
2023/09/06 07:49:55;;;;;;;6.45;5.85;;;23.50;99.90;;;;;;6189224;28;94451;-71
2023/09/06 07:52:57;;;;;;;6.55;5.75;;;23.50;99.90;;;;;;6203667;28;93972;-72
2023/09/06 07:55:59;;;;;;;6.50;5.90;;;23.50;99.90;;;;;;6178566;28;94091;-71
2023/09/06 07:59:01;;;;;;;6.70;5.78;;;23.50;99.90;;;;;;6199238;28;93335;-72
2023/09/06 08:02:04;;;;;;;6.22;5.63;;;23.40;99.90;;;;;;6189070;28;94232;-72
2023/09/06 08:05:07;;;;;;;6.43;5.82;;;23.50;99.90;;;;;;6188904;28;93957;-72
2023/09/06 08:08:11;;;;;;;5.60;5.10;;;23.40;99.90;;;;;;6201813;28;95052;-72
2023/09/06 08:11:13;;;;;;;6.40;5.80;;;23.40;99.90;;;;;;6194804;28;94455;-72
2023/09/06 08:14:15;;;;;;;6.45;5.85;;;23.40;99.90;;;;;;6179579;28;94138;-72
2023/09/06 08:17:18;;;;;;;6.45;5.85;;;23.40;99.90;;;;;;6178120;28;94110;-72
2023/09/06 08:20:20;;;;;;;5.97;5.43;;;23.50;99.90;;;;;;6181212;28;94019;-72
2023/09/06 08:23:22;;;;;;;6.65;5.95;;;23.50;99.90;;;;;;6194783;28;94450;-72
2023/09/06 08:26:24;;;;;;;6.03;5.35;;;23.50;99.90;;;;;;6187493;28;94058;-72
2023/09/06 08:29:26;;;;;;;6.50;5.90;;;23.50;99.90;;;;;;6191753;28;93676;-72
2023/09/06 08:32:30;;;;;;;7.20;6.50;;;23.50;99.90;;;;;;6178201;28;94413;-72
2023/09/06 08:35:32;;;;;;;6.65;5.90;;;23.50;99.90;;;;;;6193705;28;94039;-72
2023/09/06 08:38:34;;;;;;;6.35;5.80;;;23.50;99.90;;;;;;6192855;28;95129;-72
2023/09/06 08:41:36;;;;;;;6.80;6.20;;;23.50;99.90;;;;;;6182867;28;94543;-72
2023/09/06 08:44:40;;;;;;;6.07;5.57;;;23.40;99.90;;;;;;6191300;28;94141;-72
2023/09/06 08:47:43;;;;;;;5.68;5.18;;;23.50;99.90;;;;;;6178908;28;93110;-72
2023/09/06 08:50:47;;;;;;;6.55;5.95;;;23.40;99.90;;;;;;6182338;28;94140;-72
2023/09/06 08:53:49;;;;;;;5.85;5.35;;;23.40;99.90;;;;;;6181442;28;94146;-72
2023/09/06 08:56:52;;;;;;;5.90;5.40;;;23.40;99.90;;;;;;6202380;28;94191;-72
2023/09/06 08:59:54;;;;;;;5.82;5.32;;;23.50;99.90;;;;;;6187621;28;93264;-72
2023/09/06 09:02:58;;;;;;;5.60;5.10;;;23.50;99.90;;;;;;6194644;28;94118;-69
2023/09/06 09:06:06;;;;;;;6.07;5.57;;;23.40;99.90;;;;;;6194948;28;94116;-70
2023/09/06 09:09:16;;;;;;;6.13;5.57;;;23.40;99.90;;;;;;6183244;28;95132;-70
2023/09/06 09:12:18;;;;;;;6.28;5.68;;;23.50;99.90;;;;;;6190908;28;94129;-70
2023/09/06 09:15:21;;;;;;;5.95;5.35;;;23.50;99.90;;;;;;6182572;28;94211;-70
2023/09/06 09:18:24;;;;;;;6.05;5.50;;;23.40;99.90;;;;;;6194211;28;94018;-70
2023/09/06 09:21:30;;;;;;;6.88;6.20;;;23.50;99.90;;;;;;6191987;28;94034;-71
2023/09/06 09:24:32;;;;;;;5.85;5.35;;;23.50;99.90;;;;;;6193502;28;94076;-70
2023/09/06 09:27:34;;;;;;;5.50;5.10;;;23.50;99.90;;;;;;6193563;28;93438;-70
2023/09/06 09:30:37;;;;;;;6.25;5.68;;;23.50;99.90;;;;;;6182519;28;93357;-69
2023/09/06 09:33:40;;;;;;;5.50;5.00;;;23.40;99.90;;;;;;6194042;28;94094;-70
2023/09/06 09:36:50;;;;;;;6.32;5.60;;;23.40;99.90;;;;;;6180982;28;93991;-70
2023/09/06 09:39:52;;;;;;;6.63;5.97;;;23.40;99.90;;;;;;6179439;28;94896;-70
2023/09/06 09:42:54;;;;;;;5.70;5.20;;;23.40;99.90;;;;;;6182090;28;94151;-70
2023/09/06 09:45:57;;;;;;;5.75;5.25;;;23.40;99.90;;;;;;6194157;28;94132;-71
2023/09/06 09:49:01;;;;;;;5.80;5.30;;;23.50;99.90;;;;;;6191602;28;94214;-70
2023/09/06 09:52:03;;;;;;;5.40;4.90;;;23.40;99.90;;;;;;6195503;28;94288;-70
2023/09/06 09:55:07;;;;;;;5.63;5.13;;;23.40;99.90;;;;;;6201249;28;94072;-70
2023/09/06 09:58:12;;;;;;;5.95;5.35;;;23.50;99.90;;;;;;6205351;28;94669;-71
2023/09/06 10:01:15;;;;;;;5.20;4.80;;;23.50;99.90;;;;;;6193528;28;92428;-70
2023/09/06 10:04:23;;;;;;;5.85;5.35;;;23.50;99.90;;;;;;6189847;28;94404;-70
2023/09/06 10:07:25;;;;;;;5.97;5.40;;;23.50;99.90;;;;;;6180155;28;94480;-70
2023/09/06 10:10:28;;;;;;;5.47;4.95;;;23.50;99.90;;;;;;6180027;28;94928;-70
2023/09/06 10:13:31;;;;;;;5.25;4.75;;;23.50;99.90;;;;;;6181717;28;94113;-70
2023/09/06 10:16:33;;;;;;;5.50;5.00;;;23.50;99.90;;;;;;6190375;28;94100;-69
2023/09/06 10:19:38;;;;;;;5.65;5.15;;;23.50;99.90;;;;;;6190526;28;94160;-70
2023/09/06 10:22:43;;;;;;;5.40;5.00;;;23.50;99.90;;;;;;6183306;28;94607;-70
2023/09/06 10:25:52;;;;;;;5.60;5.10;;;23.50;99.90;;;;;;6193124;28;93984;-70
2023/09/06 10:28:57;;;;;;;5.35;4.88;;;23.50;99.90;;;;;;6201986;28;94116;-69
2023/09/06 10:32:07;;;;;;;5.45;5.00;;;23.50;99.90;;;;;;6195788;28;93171;-69
2023/09/06 10:35:25;;;;;;;5.53;5.03;;;23.50;99.90;;;;;;6192261;28;94122;-70
2023/09/06 10:38:30;;;;;;;5.30;4.80;;;23.50;99.90;;;;;;6183281;28;94122;-70
2023/09/06 10:41:32;;;;;;;5.55;5.05;;;23.50;99.90;;;;;;6180001;28;95016;-70
2023/09/06 10:45:07;;;;;;;5.00;4.60;;;23.50;99.90;;;;;;6187303;28;94031;-70
2023/09/06 10:48:10;;;;;;;6.05;5.45;;;23.50;99.90;;;;;;6181387;28;94133;-70
2023/09/06 10:51:14;;;;;;;6.00;5.40;;;23.50;99.90;;;;;;6190599;28;94032;-70
2023/09/06 10:54:18;;;;;;;5.60;5.10;;;23.50;99.90;;;;;;6191759;28;95583;-70
2023/09/06 10:57:20;;;;;;;5.00;4.60;;;23.60;99.90;;;;;;6191847;28;94260;-70
2023/09/06 11:00:26;;;;;;;5.45;4.95;;;23.60;99.90;;;;;;6181439;28;94129;-70
2023/09/06 11:03:32;;;;;;;5.32;4.82;;;23.60;99.90;;;;;;6179591;28;93300;-70
2023/09/06 11:06:51;;;;;;;5.13;4.72;;;23.50;99.90;;;;;;6184333;28;94165;-70
2023/09/06 11:09:53;;;;;;;5.28;4.70;;;23.50;99.90;;;;;;6179536;28;94324;-70
2023/09/06 11:12:56;;;;;;;5.03;4.63;;;23.50;99.90;;;;;;6190565;28;95006;-70
2023/09/06 11:15:58;;;;;;;5.07;4.68;;;23.50;99.90;;;;;;6191859;28;94054;-70
2023/09/06 11:19:00;;;;;;;5.03;4.63;;;23.50;99.90;;;;;;6184145;28;94119;-71
2023/09/06 11:22:08;;;;;;;5.18;4.78;;;23.50;99.90;;;;;;6185544;28;94016;-71
2023/09/06 11:25:17;;;;;;;4.75;4.35;;;23.60;99.90;;;;;;6184665;28;93754;-71
2023/09/06 11:28:21;;;;;;;5.35;4.95;;;23.50;99.90;;;;;;6203284;28;94009;-71
2023/09/06 11:31:26;;;;;;;5.25;4.75;;;23.50;99.90;;;;;;6190714;28;94532;-70
2023/09/06 11:34:30;;;;;;;5.47;4.97;;;23.60;99.90;;;;;;6192859;28;93240;-71
2023/09/06 11:37:36;;;;;;;5.88;5.30;;;23.50;99.90;;;;;;6180372;28;94097;-70
2023/09/06 11:40:41;;;;;;;5.13;4.72;;;23.50;99.90;;;;;;6189451;28;94663;-71
2023/09/06 11:43:48;;;;;;;4.90;4.50;;;23.50;99.90;;;;;;6190379;28;95479;-70
2023/09/06 11:46:50;;;;;;;4.85;4.45;;;23.60;99.90;;;;;;6189840;28;94103;-70
2023/09/06 11:49:52;;;;;;;5.00;4.60;;;23.60;99.90;;;;;;6202250;28;94131;-70
2023/09/06 11:52:58;;;;;;;5.45;4.95;;;23.60;99.90;;;;;;6202719;28;92973;-70
2023/09/06 11:56:00;;;;;;;5.22;4.72;;;23.60;99.90;;;;;;6189698;28;94000;-70
2023/09/06 11:59:06;;;;;;;4.72;4.32;;;23.60;99.90;;;;;;6179442;28;94170;-70
2023/09/06 12:02:13;;;;;;;4.93;4.53;;;23.60;99.90;;;;;;6191388;28;94101;-70
2023/09/06 12:05:16;;;;;;;4.78;4.38;;;23.60;99.90;;;;;;6191238;28;93582;-71
2023/09/06 12:08:23;;;;;;;4.80;4.40;;;23.60;99.90;;;;;;6178402;28;94519;-70
2023/09/06 12:11:27;;;;;;;4.60;4.20;;;23.60;99.90;;;;;;6198800;28;94240;-70
2023/09/06 12:14:31;;;;;;;5.05;4.65;;;23.60;99.90;;;;;;6189295;28;95113;-70
2023/09/06 12:17:35;;;;;;;4.90;4.50;;;23.60;99.90;;;;;;6184924;28;94242;-70
2023/09/06 12:20:37;;;;;;;4.75;4.35;;;23.60;99.90;;;;;;6190283;28;94391;-70
2023/09/06 12:23:40;;;;;;;4.85;4.45;;;23.60;99.90;;;;;;6187083;28;94646;-70
2023/09/06 12:26:42;;;;;;;4.55;4.15;;;23.60;99.90;;;;;;6188928;28;94173;-70
2023/09/06 12:29:44;;;;;;;4.68;4.28;;;23.60;99.90;;;;;;6195522;28;94478;-70
2023/09/06 12:32:46;;;;;;;5.00;4.60;;;23.60;99.90;;;;;;6184009;28;93028;-70
2023/09/06 12:35:53;;;;;;;4.75;4.35;;;23.60;99.90;;;;;;6186039;28;93669;-70
2023/09/06 12:38:56;;;;;;;4.93;4.53;;;23.60;99.90;;;;;;6183781;28;95364;-70
2023/09/06 12:41:58;;;;;;;4.60;4.20;;;23.60;99.90;;;;;;6181481;28;94137;-70
2023/09/06 12:45:01;;;;;;;4.97;4.57;;;23.60;99.90;;;;;;6200763;28;95054;-70
2023/09/06 12:48:05;;;;;;;4.93;4.43;;;23.60;99.90;;;;;;6195525;28;94198;-70
2023/09/06 12:51:07;;;;;;;4.55;4.15;;;23.60;99.90;;;;;;6194872;28;94239;-70
2023/09/06 12:54:10;;;;;;;4.70;4.30;;;23.60;99.90;;;;;;6182408;28;94394;-70
2023/09/06 12:57:12;;;;;;;4.90;4.40;;;23.60;99.90;;;;;;6189820;28;94079;-70
2023/09/06 13:00:16;;;;;;;4.45;4.13;;;23.60;99.90;;;;;;6184149;28;94440;-70
2023/09/06 13:03:19;;;;;;;4.50;4.20;;;23.60;99.90;;;;;;6182247;28;94134;-70
2023/09/06 13:06:21;;;;;;;4.55;4.20;;;23.60;99.90;;;;;;6187352;28;93382;-70
2023/09/06 13:09:24;;;;;;;4.50;4.10;;;23.60;99.90;;;;;;6192483;28;94162;-71
2023/09/06 13:12:26;;;;;;;4.25;3.95;;;23.60;99.90;;;;;;6193442;28;94160;-70
2023/09/06 13:15:28;;;;;;;4.85;4.45;;;23.60;99.90;;;;;;6192317;28;93518;-70
2023/09/06 13:18:30;;;;;;;4.50;4.10;;;23.60;99.90;;;;;;6205793;28;94237;-70
2023/09/06 13:21:33;;;;;;;5.05;4.55;;;23.60;99.90;;;;;;6190932;28;94108;-70
2023/09/06 13:24:37;;;;;;;4.35;4.00;;;23.60;99.90;;;;;;6181827;28;93866;-70
2023/09/06 13:27:41;;;;;;;4.57;4.18;;;23.60;99.90;;;;;;6206812;28;94053;-70
2023/09/06 13:30:43;;;;;;;4.70;4.28;;;23.60;99.90;;;;;;6205858;28;94211;-70
2023/09/06 13:33:45;;;;;;;4.85;4.45;;;23.60;99.90;;;;;;6200329;28;94121;-70
2023/09/06 13:36:47;;;;;;;4.63;4.18;;;23.60;99.90;;;;;;6185622;28;92253;-70
2023/09/06 13:39:51;;;;;;;4.57;4.18;;;23.60;99.90;;;;;;6194531;28;94052;-70
2023/09/06 13:42:52;;;;;;;4.65;4.25;;;23.60;99.90;;;;;;6181087;28;94056;-70
2023/09/06 13:45:54;;;;;;;4.32;3.92;;;23.60;99.90;;;;;;6204316;28;95363;-69
2023/09/06 13:48:59;;;;;;;4.57;4.20;;;23.60;99.90;;;;;;6205079;28;94133;-70
2023/09/06 13:52:01;;;;;;;4.40;4.00;;;23.60;99.90;;;;;;6204821;28;94042;-70
2023/09/06 13:55:05;;;;;;;4.20;3.90;;;23.60;99.90;;;;;;6204660;28;94485;-70
2023/09/06 13:58:08;;;;;;;4.43;4.10;;;23.60;99.90;;;;;;6199824;28;94217;-71
2023/09/06 14:01:11;;;;;;;4.20;3.90;;;23.60;99.90;;;;;;6181916;28;93896;-70
2023/09/06 14:04:13;;;;;;;4.55;4.15;;;23.60;99.90;;;;;;6192436;28;94208;-70
2023/09/06 14:07:15;;;;;;;4.40;4.10;;;23.60;99.90;;;;;;6193413;28;93454;-70
2023/09/06 14:10:18;;;;;;;4.25;3.95;;;23.60;99.90;;;;;;6180607;28;94041;-70
2023/09/06 14:13:20;;;;;;;4.88;4.47;;;23.60;99.90;;;;;;6181380;28;93993;-70
2023/09/06 14:16:22;;;;;;;4.10;3.80;;;23.60;99.90;;;;;;6199575;28;95204;-71
2023/09/06 14:19:25;;;;;;;4.60;4.20;;;23.60;99.90;;;;;;6184644;28;94131;-71
2023/09/06 14:22:28;;;;;;;4.43;4.03;;;23.60;99.90;;;;;;6189793;28;94410;-70
2023/09/06 14:25:31;;;;;;;3.70;3.40;;;23.70;99.90;;;;;;6196473;28;94261;-70
2023/09/06 14:28:33;;;;;;;4.22;3.92;;;23.60;99.90;;;;;;6180057;28;94191;-70
2023/09/06 14:31:35;;;;;;;4.90;4.50;;;23.60;99.90;;;;;;6180282;28;94055;-71
2023/09/06 14:34:37;;;;;;;4.20;3.80;;;23.60;99.90;;;;;;6186652;28;94184;-71
2023/09/06 14:37:39;;;;;;;4.65;4.25;;;23.70;99.90;;;;;;6184781;28;93295;-70
2023/09/06 14:40:44;;;;;;;4.13;3.83;;;23.60;99.90;;;;;;6188014;28;94444;-71
2023/09/06 14:43:46;;;;;;;3.95;3.63;;;23.60;99.90;;;;;;6186976;28;94154;-71
2023/09/06 14:46:48;;;;;;;4.30;4.00;;;23.60;99.90;;;;;;6191490;28;94976;-71
2023/09/06 14:49:50;;;;;;;4.03;3.72;;;23.60;99.90;;;;;;6191774;28;94264;-70
2023/09/06 14:52:53;;;;;;;4.32;3.95;;;23.60;99.90;;;;;;6179280;28;94016;-70
2023/09/06 14:56:00;;;;;;;4.40;4.00;;;23.60;99.90;;;;;;6191550;28;94150;-70
2023/09/06 14:59:04;;;;;;;4.00;3.70;;;23.60;99.90;;;;;;6179084;28;94294;-71
2023/09/06 15:02:08;;;;;;;3.90;3.60;;;23.60;99.90;;;;;;6203511;28;93402;-70
2023/09/06 15:05:11;;;;;;;3.97;3.67;;;23.60;99.90;;;;;;6194191;28;93023;-71
2023/09/06 15:08:26;;;;;;;4.60;4.20;;;23.60;99.90;;;;;;6261258;27;80229;-72
2023/09/06 15:11:32;;;;;;;4.07;3.78;;;23.70;99.90;;;;;;6255176;27;81251;-72
2023/09/06 15:14:37;;;;;;;4.45;4.05;;;23.60;99.90;;;;;;6254773;27;80263;-72
2023/09/06 15:17:40;;;;;;;4.35;3.97;;;23.60;99.90;;;;;;6256134;28;81135;-72
2023/09/06 15:20:44;;;;;;;4.40;4.00;;;23.60;99.90;;;;;;6256379;28;80880;-73
2023/09/06 15:23:49;;;;;;;4.28;3.97;;;23.60;99.90;;;;;;6256207;27;80437;-71
2023/09/06 15:26:53;;;;;;;4.20;3.80;;;23.60;99.90;;;;;;6255126;27;81222;-72
2023/09/06 15:29:56;;;;;;;4.60;4.20;;;23.60;99.90;;;;;;6254413;27;82283;-71
2023/09/06 15:33:01;;;;;;;4.65;4.20;;;23.70;99.90;;;;;;6255890;28;82460;-72
2023/09/06 15:36:08;;;;;;;4.05;3.75;;;23.70;99.90;;;;;;6255921;27;80169;-72
2023/09/06 15:39:13;;;;;;;4.03;3.72;;;23.60;99.90;;;;;;6255386;28;81486;-71
2023/09/06 15:42:16;;;;;;;4.10;3.80;;;23.60;99.90;;;;;;6254479;27;81653;-72
2023/09/06 15:45:19;;;;;;;4.18;3.85;;;23.60;99.90;;;;;;6255282;28;81256;-71
2023/09/06 15:48:23;;;;;;;4.20;3.80;;;23.70;99.90;;;;;;6254643;28;80961;-72
2023/09/06 15:51:25;;;;;;;4.00;3.67;;;23.60;99.90;;;;;;6253077;28;81268;-71
2023/09/06 15:54:30;;;;;;;4.65;4.10;;;23.70;99.90;;;;;;6244437;27;81194;-72